sensor_id;sensor_type;location;lat;lon;timestamp;temperature;humidity
52965;DHT22;42923;53.220;6.528;2022-08-25T00:01:17;20.10;99.90
52965;DHT22;42923;53.220;6.528;2022-08-25T00:03:43;20.10;99.90
52965;DHT22;42923;53.220;6.528;2022-08-25T00:06:11;20.10;99.90
52965;DHT22;42923;53.220;6.528;2022-08-25T00:08:37;20.10;99.90
52965;DHT22;42923;53.220;6.528;2022-08-25T00:11:05;20.20;99.90
52965;DHT22;42923;53.220;6.528;2022-08-25T00:13:31;20.20;99.90
52965;DHT22;42923;53.220;6.528;2022-08-25T00:15:58;20.10;99.90
52965;DHT22;42923;53.220;6.528;2022-08-25T00:18:24;20.10;99.90
52965;DHT22;42923;53.220;6.528;2022-08-25T00:20:50;20.10;99.90
52965;DHT22;42923;53.220;6.528;2022-08-25T00:23:16;20.00;99.90
52965;DHT22;42923;53.220;6.528;2022-08-25T00:25:42;20.10;99.90
52965;DHT22;42923;53.220;6.528;2022-08-25T00:28:08;20.00;99.90
52965;DHT22;42923;53.220;6.528;2022-08-25T00:30:35;20.00;99.90
52965;DHT22;42923;53.220;6.528;2022-08-25T00:33:01;20.00;99.90
52965;DHT22;42923;53.220;6.528;2022-08-25T00:35:28;20.00;99.90
52965;DHT22;42923;53.220;6.528;2022-08-25T00:37:54;20.00;99.90
52965;DHT22;42923;53.220;6.528;2022-08-25T00:40:20;20.00;99.90
52965;DHT22;42923;53.220;6.528;2022-08-25T00:42:46;20.00;99.90
52965;DHT22;42923;53.220;6.528;2022-08-25T00:45:12;20.00;99.90
52965;DHT22;42923;53.220;6.528;2022-08-25T00:47:38;20.10;99.90
52965;DHT22;42923;53.220;6.528;2022-08-25T00:50:06;20.10;99.90
52965;DHT22;42923;53.220;6.528;2022-08-25T00:52:37;20.00;99.90
52965;DHT22;42923;53.220;6.528;2022-08-25T00:55:28;20.00;99.90
52965;DHT22;42923;53.220;6.528;2022-08-25T00:58:01;20.00;99.90
52965;DHT22;42923;53.220;6.528;2022-08-25T01:00:31;20.00;99.90
52965;DHT22;42923;53.220;6.528;2022-08-25T01:02:58;20.00;99.90
52965;DHT22;42923;53.220;6.528;2022-08-25T01:05:25;20.00;99.90
52965;DHT22;42923;53.220;6.528;2022-08-25T01:07:53;20.00;99.90
52965;DHT22;42923;53.220;6.528;2022-08-25T01:10:21;20.00;99.90
52965;DHT22;42923;53.220;6.528;2022-08-25T01:12:48;20.00;99.90
52965;DHT22;42923;53.220;6.528;2022-08-25T01:15:14;19.90;99.90
52965;DHT22;42923;53.220;6.528;2022-08-25T01:17:52;19.90;99.90
52965;DHT22;42923;53.220;6.528;2022-08-25T01:20:21;19.90;99.90
52965;DHT22;42923;53.220;6.528;2022-08-25T01:22:48;19.90;99.90
52965;DHT22;42923;53.220;6.528;2022-08-25T01:28:19;19.90;99.90
52965;DHT22;42923;53.220;6.528;2022-08-25T01:30:45;19.90;99.90
52965;DHT22;42923;53.220;6.528;2022-08-25T01:33:11;19.90;99.90
52965;DHT22;42923;53.220;6.528;2022-08-25T01:35:39;19.90;99.90
52965;DHT22;42923;53.220;6.528;2022-08-25T01:38:06;19.90;99.90
52965;DHT22;42923;53.220;6.528;2022-08-25T01:40:33;19.80;99.90
52965;DHT22;42923;53.220;6.528;2022-08-25T01:45:32;19.70;99.90
52965;DHT22;42923;53.220;6.528;2022-08-25T01:47:59;19.80;99.90
52965;DHT22;42923;53.220;6.528;2022-08-25T01:50:24;19.80;99.90
52965;DHT22;42923;53.220;6.528;2022-08-25T01:55:49;19.80;99.90
52965;DHT22;42923;53.220;6.528;2022-08-25T01:58:20;19.70;99.90
52965;DHT22;42923;53.220;6.528;2022-08-25T02:00:48;19.80;99.90
52965;DHT22;42923;53.220;6.528;2022-08-25T02:03:15;19.70;99.90
52965;DHT22;42923;53.220;6.528;2022-08-25T02:05:42;19.80;99.90
52965;DHT22;42923;53.220;6.528;2022-08-25T02:08:08;19.70;99.90
52965;DHT22;42923;53.220;6.528;2022-08-25T02:10:34;19.70;99.90
52965;DHT22;42923;53.220;6.528;2022-08-25T02:13:00;19.70;99.90
52965;DHT22;42923;53.220;6.528;2022-08-25T02:15:26;19.60;99.90
52965;DHT22;42923;53.220;6.528;2022-08-25T02:17:51;19.60;99.90
52965;DHT22;42923;53.220;6.528;2022-08-25T02:20:17;19.50;99.90
52965;DHT22;42923;53.220;6.528;2022-08-25T02:22:43;19.50;99.90
52965;DHT22;42923;53.220;6.528;2022-08-25T02:25:09;19.60;99.90
52965;DHT22;42923;53.220;6.528;2022-08-25T02:27:35;19.50;99.90
52965;DHT22;42923;53.220;6.528;2022-08-25T02:30:01;19.50;99.90
52965;DHT22;42923;53.220;6.528;2022-08-25T02:32:27;19.50;99.90
52965;DHT22;42923;53.220;6.528;2022-08-25T02:34:53;19.50;99.90
52965;DHT22;42923;53.220;6.528;2022-08-25T02:37:18;19.50;99.90
52965;DHT22;42923;53.220;6.528;2022-08-25T02:39:45;19.60;99.90
52965;DHT22;42923;53.220;6.528;2022-08-25T02:42:11;19.60;99.90
52965;DHT22;42923;53.220;6.528;2022-08-25T02:44:36;19.60;99.90
52965;DHT22;42923;53.220;6.528;2022-08-25T02:47:02;19.50;99.90
52965;DHT22;42923;53.220;6.528;2022-08-25T02:49:28;19.50;99.90
52965;DHT22;42923;53.220;6.528;2022-08-25T02:51:54;19.50;99.90
52965;DHT22;42923;53.220;6.528;2022-08-25T02:54:21;19.50;99.90
52965;DHT22;42923;53.220;6.528;2022-08-25T02:56:48;19.40;99.90
52965;DHT22;42923;53.220;6.528;2022-08-25T02:59:13;19.40;99.90
52965;DHT22;42923;53.220;6.528;2022-08-25T03:01:39;19.40;99.90
52965;DHT22;42923;53.220;6.528;2022-08-25T03:04:05;19.30;99.90
52965;DHT22;42923;53.220;6.528;2022-08-25T03:06:31;19.20;99.90
52965;DHT22;42923;53.220;6.528;2022-08-25T03:08:57;19.30;99.90
52965;DHT22;42923;53.220;6.528;2022-08-25T03:11:23;19.20;99.90
52965;DHT22;42923;53.220;6.528;2022-08-25T03:13:50;19.20;99.90
52965;DHT22;42923;53.220;6.528;2022-08-25T03:16:16;19.10;99.90
52965;DHT22;42923;53.220;6.528;2022-08-25T03:18:42;19.10;99.90
52965;DHT22;42923;53.220;6.528;2022-08-25T03:21:09;19.10;99.90
52965;DHT22;42923;53.220;6.528;2022-08-25T03:23:36;19.10;99.90
52965;DHT22;42923;53.220;6.528;2022-08-25T03:26:02;19.00;99.90
52965;DHT22;42923;53.220;6.528;2022-08-25T03:28:46;19.00;99.90
52965;DHT22;42923;53.220;6.528;2022-08-25T03:31:12;19.00;99.90
52965;DHT22;42923;53.220;6.528;2022-08-25T03:33:38;18.90;99.90
52965;DHT22;42923;53.220;6.528;2022-08-25T03:36:05;18.90;99.90
52965;DHT22;42923;53.220;6.528;2022-08-25T03:38:32;18.80;99.90
52965;DHT22;42923;53.220;6.528;2022-08-25T03:40:57;18.80;99.90
52965;DHT22;42923;53.220;6.528;2022-08-25T03:43:23;18.80;99.90
52965;DHT22;42923;53.220;6.528;2022-08-25T03:45:49;18.80;99.90
52965;DHT22;42923;53.220;6.528;2022-08-25T03:48:16;18.90;99.90
52965;DHT22;42923;53.220;6.528;2022-08-25T03:50:50;18.90;99.90
52965;DHT22;42923;53.220;6.528;2022-08-25T03:53:16;18.90;99.90
52965;DHT22;42923;53.220;6.528;2022-08-25T03:55:42;18.90;99.90
52965;DHT22;42923;53.220;6.528;2022-08-25T03:58:08;18.90;99.90
52965;DHT22;42923;53.220;6.528;2022-08-25T04:00:34;18.80;99.90
52965;DHT22;42923;53.220;6.528;2022-08-25T04:03:00;18.90;99.90
52965;DHT22;42923;53.220;6.528;2022-08-25T04:05:26;18.90;99.90
52965;DHT22;42923;53.220;6.528;2022-08-25T04:07:51;18.80;99.90
52965;DHT22;42923;53.220;6.528;2022-08-25T04:10:17;18.80;99.90
52965;DHT22;42923;53.220;6.528;2022-08-25T04:12:43;18.80;99.90
52965;DHT22;42923;53.220;6.528;2022-08-25T04:15:09;18.80;99.90
52965;DHT22;42923;53.220;6.528;2022-08-25T04:17:38;18.80;99.90
52965;DHT22;42923;53.220;6.528;2022-08-25T04:20:06;18.80;99.90
52965;DHT22;42923;53.220;6.528;2022-08-25T04:22:33;18.70;99.90
52965;DHT22;42923;53.220;6.528;2022-08-25T04:24:58;18.70;99.90
52965;DHT22;42923;53.220;6.528;2022-08-25T04:27:24;18.70;99.90
52965;DHT22;42923;53.220;6.528;2022-08-25T04:29:50;18.70;99.90
52965;DHT22;42923;53.220;6.528;2022-08-25T04:32:15;18.70;99.90
52965;DHT22;42923;53.220;6.528;2022-08-25T04:34:41;18.60;99.90
52965;DHT22;42923;53.220;6.528;2022-08-25T04:37:08;18.70;99.90
52965;DHT22;42923;53.220;6.528;2022-08-25T04:39:34;18.60;99.90
52965;DHT22;42923;53.220;6.528;2022-08-25T04:42:00;18.60;99.90
52965;DHT22;42923;53.220;6.528;2022-08-25T04:44:26;18.60;99.90
52965;DHT22;42923;53.220;6.528;2022-08-25T04:46:52;18.60;99.90
52965;DHT22;42923;53.220;6.528;2022-08-25T04:49:18;18.60;99.90
52965;DHT22;42923;53.220;6.528;2022-08-25T04:51:44;18.60;99.90
52965;DHT22;42923;53.220;6.528;2022-08-25T04:54:11;18.50;99.90
52965;DHT22;42923;53.220;6.528;2022-08-25T04:56:40;18.50;99.90
52965;DHT22;42923;53.220;6.528;2022-08-25T04:59:10;18.60;99.90
52965;DHT22;42923;53.220;6.528;2022-08-25T05:01:37;18.50;99.90
52965;DHT22;42923;53.220;6.528;2022-08-25T05:04:05;18.50;99.90
52965;DHT22;42923;53.220;6.528;2022-08-25T05:06:31;18.60;99.90
52965;DHT22;42923;53.220;6.528;2022-08-25T05:08:57;18.60;99.90
52965;DHT22;42923;53.220;6.528;2022-08-25T05:11:24;18.60;99.90
52965;DHT22;42923;53.220;6.528;2022-08-25T05:13:51;18.60;99.90
52965;DHT22;42923;53.220;6.528;2022-08-25T05:16:19;18.60;99.90
52965;DHT22;42923;53.220;6.528;2022-08-25T05:18:46;18.60;99.90
52965;DHT22;42923;53.220;6.528;2022-08-25T05:21:15;18.70;99.90
52965;DHT22;42923;53.220;6.528;2022-08-25T05:23:41;18.70;99.90
52965;DHT22;42923;53.220;6.528;2022-08-25T05:26:11;18.70;99.90
52965;DHT22;42923;53.220;6.528;2022-08-25T05:28:38;18.70;99.90
52965;DHT22;42923;53.220;6.528;2022-08-25T05:31:11;18.70;99.90
52965;DHT22;42923;53.220;6.528;2022-08-25T05:33:39;18.70;99.90
52965;DHT22;42923;53.220;6.528;2022-08-25T05:36:07;18.80;99.90
52965;DHT22;42923;53.220;6.528;2022-08-25T05:38:34;18.80;99.90
52965;DHT22;42923;53.220;6.528;2022-08-25T05:41:02;18.80;99.90
52965;DHT22;42923;53.220;6.528;2022-08-25T05:43:29;18.80;99.90
52965;DHT22;42923;53.220;6.528;2022-08-25T05:45:56;18.80;99.90
52965;DHT22;42923;53.220;6.528;2022-08-25T05:48:23;18.80;99.90
52965;DHT22;42923;53.220;6.528;2022-08-25T05:50:54;18.80;99.90
52965;DHT22;42923;53.220;6.528;2022-08-25T05:53:21;18.90;99.90
52965;DHT22;42923;53.220;6.528;2022-08-25T05:55:49;19.00;99.90
52965;DHT22;42923;53.220;6.528;2022-08-25T05:58:15;19.00;99.90
52965;DHT22;42923;53.220;6.528;2022-08-25T06:00:41;19.20;99.90
52965;DHT22;42923;53.220;6.528;2022-08-25T06:03:07;19.20;99.90
52965;DHT22;42923;53.220;6.528;2022-08-25T06:05:32;19.40;99.90
52965;DHT22;42923;53.220;6.528;2022-08-25T06:07:58;19.40;99.90
52965;DHT22;42923;53.220;6.528;2022-08-25T06:10:27;19.50;99.90
52965;DHT22;42923;53.220;6.528;2022-08-25T06:12:52;19.70;99.90
52965;DHT22;42923;53.220;6.528;2022-08-25T06:15:20;19.70;99.90
52965;DHT22;42923;53.220;6.528;2022-08-25T06:17:48;19.90;99.90
52965;DHT22;42923;53.220;6.528;2022-08-25T06:20:20;20.00;99.90
52965;DHT22;42923;53.220;6.528;2022-08-25T06:22:47;20.10;99.90
52965;DHT22;42923;53.220;6.528;2022-08-25T06:25:15;20.20;99.90
52965;DHT22;42923;53.220;6.528;2022-08-25T06:27:41;20.30;99.90
52965;DHT22;42923;53.220;6.528;2022-08-25T06:30:09;20.50;99.90
52965;DHT22;42923;53.220;6.528;2022-08-25T06:32:38;20.50;99.90
52965;DHT22;42923;53.220;6.528;2022-08-25T06:35:06;20.60;99.90
52965;DHT22;42923;53.220;6.528;2022-08-25T06:37:33;20.80;99.90
52965;DHT22;42923;53.220;6.528;2022-08-25T06:39:59;20.90;99.90
52965;DHT22;42923;53.220;6.528;2022-08-25T06:42:24;20.90;99.90
52965;DHT22;42923;53.220;6.528;2022-08-25T06:44:50;21.00;99.90
52965;DHT22;42923;53.220;6.528;2022-08-25T06:47:16;21.10;99.90
52965;DHT22;42923;53.220;6.528;2022-08-25T06:49:43;21.20;99.90
52965;DHT22;42923;53.220;6.528;2022-08-25T06:52:10;21.30;99.90
52965;DHT22;42923;53.220;6.528;2022-08-25T06:54:36;21.40;99.90
52965;DHT22;42923;53.220;6.528;2022-08-25T06:57:03;21.50;99.90
52965;DHT22;42923;53.220;6.528;2022-08-25T06:59:29;21.50;99.90
52965;DHT22;42923;53.220;6.528;2022-08-25T07:01:55;21.60;99.90
52965;DHT22;42923;53.220;6.528;2022-08-25T07:04:21;21.70;99.90
52965;DHT22;42923;53.220;6.528;2022-08-25T07:06:46;21.80;99.90
52965;DHT22;42923;53.220;6.528;2022-08-25T07:09:13;21.90;99.90
52965;DHT22;42923;53.220;6.528;2022-08-25T07:11:40;22.00;99.90
52965;DHT22;42923;53.220;6.528;2022-08-25T07:14:08;22.10;99.90
52965;DHT22;42923;53.220;6.528;2022-08-25T07:16:34;22.10;99.90
52965;DHT22;42923;53.220;6.528;2022-08-25T07:19:00;22.20;99.90
52965;DHT22;42923;53.220;6.528;2022-08-25T07:21:28;22.30;99.90
52965;DHT22;42923;53.220;6.528;2022-08-25T07:23:54;22.30;99.90
52965;DHT22;42923;53.220;6.528;2022-08-25T07:26:26;22.40;99.90
52965;DHT22;42923;53.220;6.528;2022-08-25T07:28:52;22.50;99.90
52965;DHT22;42923;53.220;6.528;2022-08-25T07:31:18;22.60;99.90
52965;DHT22;42923;53.220;6.528;2022-08-25T07:33:44;22.70;99.90
52965;DHT22;42923;53.220;6.528;2022-08-25T07:36:29;22.80;99.90
52965;DHT22;42923;53.220;6.528;2022-08-25T07:38:56;22.90;99.90
52965;DHT22;42923;53.220;6.528;2022-08-25T07:41:23;23.00;99.90
52965;DHT22;42923;53.220;6.528;2022-08-25T07:43:49;23.10;99.90
52965;DHT22;42923;53.220;6.528;2022-08-25T07:46:14;23.20;99.90
52965;DHT22;42923;53.220;6.528;2022-08-25T07:48:40;23.30;99.90
52965;DHT22;42923;53.220;6.528;2022-08-25T07:51:11;23.60;99.90
52965;DHT22;42923;53.220;6.528;2022-08-25T07:53:39;23.80;99.90
52965;DHT22;42923;53.220;6.528;2022-08-25T07:56:13;24.00;99.90
52965;DHT22;42923;53.220;6.528;2022-08-25T07:58:40;24.10;99.90
52965;DHT22;42923;53.220;6.528;2022-08-25T08:01:20;24.10;99.90
52965;DHT22;42923;53.220;6.528;2022-08-25T08:03:46;24.20;99.90
52965;DHT22;42923;53.220;6.528;2022-08-25T08:06:14;24.20;99.90
52965;DHT22;42923;53.220;6.528;2022-08-25T08:08:41;24.20;99.90
52965;DHT22;42923;53.220;6.528;2022-08-25T08:13:46;24.20;99.90
52965;DHT22;42923;53.220;6.528;2022-08-25T08:16:14;24.30;99.90
52965;DHT22;42923;53.220;6.528;2022-08-25T08:18:41;24.30;99.90
52965;DHT22;42923;53.220;6.528;2022-08-25T08:21:12;24.40;99.90
52965;DHT22;42923;53.220;6.528;2022-08-25T08:23:38;24.40;99.90
52965;DHT22;42923;53.220;6.528;2022-08-25T08:26:04;24.50;99.90
52965;DHT22;42923;53.220;6.528;2022-08-25T08:28:30;24.60;99.90
52965;DHT22;42923;53.220;6.528;2022-08-25T08:30:56;24.60;99.90
52965;DHT22;42923;53.220;6.528;2022-08-25T08:33:22;24.80;99.90
52965;DHT22;42923;53.220;6.528;2022-08-25T08:35:56;24.90;99.90
52965;DHT22;42923;53.220;6.528;2022-08-25T08:38:21;25.00;99.90
52965;DHT22;42923;53.220;6.528;2022-08-25T08:40:58;25.10;99.90
52965;DHT22;42923;53.220;6.528;2022-08-25T08:43:45;25.30;99.90
52965;DHT22;42923;53.220;6.528;2022-08-25T08:46:12;25.50;99.90
52965;DHT22;42923;53.220;6.528;2022-08-25T08:48:59;25.50;99.90
52965;DHT22;42923;53.220;6.528;2022-08-25T08:51:46;25.60;99.90
52965;DHT22;42923;53.220;6.528;2022-08-25T08:54:18;25.60;99.90
52965;DHT22;42923;53.220;6.528;2022-08-25T08:56:57;25.70;99.90
52965;DHT22;42923;53.220;6.528;2022-08-25T08:59:32;25.70;99.90
52965;DHT22;42923;53.220;6.528;2022-08-25T09:02:12;25.80;99.90
52965;DHT22;42923;53.220;6.528;2022-08-25T09:04:48;25.80;99.90
52965;DHT22;42923;53.220;6.528;2022-08-25T09:07:20;25.90;99.90
52965;DHT22;42923;53.220;6.528;2022-08-25T09:09:47;26.00;99.90
52965;DHT22;42923;53.220;6.528;2022-08-25T09:12:35;26.00;99.90
52965;DHT22;42923;53.220;6.528;2022-08-25T09:15:06;26.10;99.90
52965;DHT22;42923;53.220;6.528;2022-08-25T09:17:56;26.10;99.90
52965;DHT22;42923;53.220;6.528;2022-08-25T09:23:23;26.20;99.90
52965;DHT22;42923;53.220;6.528;2022-08-25T09:29:06;26.40;99.90
52965;DHT22;42923;53.220;6.528;2022-08-25T09:31:37;26.50;99.90
52965;DHT22;42923;53.220;6.528;2022-08-25T09:34:06;26.60;99.90
52965;DHT22;42923;53.220;6.528;2022-08-25T09:36:36;26.70;99.90
52965;DHT22;42923;53.220;6.528;2022-08-25T09:39:03;26.80;99.90
52965;DHT22;42923;53.220;6.528;2022-08-25T09:41:50;26.90;99.90
52965;DHT22;42923;53.220;6.528;2022-08-25T09:44:26;26.90;99.90
52965;DHT22;42923;53.220;6.528;2022-08-25T09:50:16;27.00;99.90
52965;DHT22;42923;53.220;6.528;2022-08-25T09:54:55;27.10;99.90
52965;DHT22;42923;53.220;6.528;2022-08-25T09:57:33;27.30;99.90
52965;DHT22;42923;53.220;6.528;2022-08-25T10:02:43;27.50;99.90
52965;DHT22;42923;53.220;6.528;2022-08-25T10:05:22;27.60;99.90
52965;DHT22;42923;53.220;6.528;2022-08-25T10:07:55;27.60;98.90
52965;DHT22;42923;53.220;6.528;2022-08-25T10:10:28;27.80;98.60
52965;DHT22;42923;53.220;6.528;2022-08-25T10:12:54;27.90;97.10
52965;DHT22;42923;53.220;6.528;2022-08-25T10:15:35;28.00;95.80
52965;DHT22;42923;53.220;6.528;2022-08-25T10:18:25;28.10;93.50
52965;DHT22;42923;53.220;6.528;2022-08-25T10:21:04;28.10;95.20
52965;DHT22;42923;53.220;6.528;2022-08-25T10:23:32;28.20;92.50
52965;DHT22;42923;53.220;6.528;2022-08-25T10:26:04;28.30;94.70
52965;DHT22;42923;53.220;6.528;2022-08-25T10:28:54;28.40;95.00
52965;DHT22;42923;53.220;6.528;2022-08-25T10:32:04;28.60;95.90
52965;DHT22;42923;53.220;6.528;2022-08-25T10:34:45;28.80;94.20
52965;DHT22;42923;53.220;6.528;2022-08-25T10:37:19;29.10;94.20
52965;DHT22;42923;53.220;6.528;2022-08-25T10:40:03;29.50;93.10
52965;DHT22;42923;53.220;6.528;2022-08-25T10:45:28;30.50;91.50
52965;DHT22;42923;53.220;6.528;2022-08-25T10:48:23;30.90;90.10
52965;DHT22;42923;53.220;6.528;2022-08-25T10:54:09;31.80;81.00
52965;DHT22;42923;53.220;6.528;2022-08-25T10:56:40;32.20;80.20
52965;DHT22;42923;53.220;6.528;2022-08-25T10:59:15;32.50;75.50
52965;DHT22;42923;53.220;6.528;2022-08-25T11:08:14;33.30;73.20
52965;DHT22;42923;53.220;6.528;2022-08-25T11:10:48;33.60;71.90
52965;DHT22;42923;53.220;6.528;2022-08-25T11:14:04;33.70;70.10
52965;DHT22;42923;53.220;6.528;2022-08-25T11:16:14;33.80;68.00
52965;DHT22;42923;53.220;6.528;2022-08-25T11:18:49;33.80;66.70
52965;DHT22;42923;53.220;6.528;2022-08-25T11:21:22;33.70;66.00
52965;DHT22;42923;53.220;6.528;2022-08-25T11:23:54;33.70;65.50
52965;DHT22;42923;53.220;6.528;2022-08-25T11:26:27;33.80;66.90
52965;DHT22;42923;53.220;6.528;2022-08-25T11:29:08;34.00;66.60
52965;DHT22;42923;53.220;6.528;2022-08-25T11:31:42;34.10;66.80
52965;DHT22;42923;53.220;6.528;2022-08-25T11:34:11;34.20;66.10
52965;DHT22;42923;53.220;6.528;2022-08-25T11:36:42;34.40;66.20
52965;DHT22;42923;53.220;6.528;2022-08-25T11:39:15;34.60;65.30
52965;DHT22;42923;53.220;6.528;2022-08-25T11:49:30;35.00;64.80
52965;DHT22;42923;53.220;6.528;2022-08-25T11:51:59;35.20;65.30
52965;DHT22;42923;53.220;6.528;2022-08-25T11:54:37;35.30;65.10
52965;DHT22;42923;53.220;6.528;2022-08-25T12:02:45;35.60;60.30
52965;DHT22;42923;53.220;6.528;2022-08-25T12:10:23;35.50;59.70
52965;DHT22;42923;53.220;6.528;2022-08-25T12:13:03;35.60;59.80
52965;DHT22;42923;53.220;6.528;2022-08-25T12:23:33;36.30;57.00
52965;DHT22;42923;53.220;6.528;2022-08-25T12:31:59;36.90;57.30
52965;DHT22;42923;53.220;6.528;2022-08-25T12:37:31;37.00;54.80
52965;DHT22;42923;53.220;6.528;2022-08-25T12:39:59;37.20;55.20
52965;DHT22;42923;53.220;6.528;2022-08-25T12:42:37;37.10;54.80
52965;DHT22;42923;53.220;6.528;2022-08-25T12:47:52;37.20;54.20
52965;DHT22;42923;53.220;6.528;2022-08-25T12:50:38;37.30;54.40
52965;DHT22;42923;53.220;6.528;2022-08-25T12:53:18;37.40;54.60
52965;DHT22;42923;53.220;6.528;2022-08-25T12:55:55;37.40;51.60
52965;DHT22;42923;53.220;6.528;2022-08-25T12:58:24;37.30;53.30
52965;DHT22;42923;53.220;6.528;2022-08-25T13:01:11;37.30;53.20
52965;DHT22;42923;53.220;6.528;2022-08-25T13:07:15;37.50;53.40
52965;DHT22;42923;53.220;6.528;2022-08-25T13:10:23;37.60;54.20
52965;DHT22;42923;53.220;6.528;2022-08-25T13:12:57;37.80;53.30
52965;DHT22;42923;53.220;6.528;2022-08-25T13:15:31;38.00;53.60
52965;DHT22;42923;53.220;6.528;2022-08-25T13:18:12;38.20;53.30
52965;DHT22;42923;53.220;6.528;2022-08-25T13:20:38;38.30;52.40
52965;DHT22;42923;53.220;6.528;2022-08-25T13:23:04;38.30;51.90
52965;DHT22;42923;53.220;6.528;2022-08-25T13:25:30;38.40;51.00
52965;DHT22;42923;53.220;6.528;2022-08-25T13:28:00;38.30;50.30
52965;DHT22;42923;53.220;6.528;2022-08-25T13:30:30;38.40;50.30
52965;DHT22;42923;53.220;6.528;2022-08-25T13:32:56;38.40;51.20
52965;DHT22;42923;53.220;6.528;2022-08-25T13:35:27;38.40;50.20
52965;DHT22;42923;53.220;6.528;2022-08-25T13:37:53;38.50;50.30
52965;DHT22;42923;53.220;6.528;2022-08-25T13:40:36;38.70;49.50
52965;DHT22;42923;53.220;6.528;2022-08-25T13:43:04;38.80;49.30
52965;DHT22;42923;53.220;6.528;2022-08-25T13:45:34;38.90;49.40
52965;DHT22;42923;53.220;6.528;2022-08-25T13:48:02;39.00;48.80
52965;DHT22;42923;53.220;6.528;2022-08-25T13:50:37;39.00;49.80
52965;DHT22;42923;53.220;6.528;2022-08-25T13:53:19;39.10;50.30
52965;DHT22;42923;53.220;6.528;2022-08-25T13:55:58;39.30;49.90
52965;DHT22;42923;53.220;6.528;2022-08-25T13:58:28;39.60;50.20
52965;DHT22;42923;53.220;6.528;2022-08-25T14:01:14;39.90;49.60
52965;DHT22;42923;53.220;6.528;2022-08-25T14:03:45;40.10;49.40
52965;DHT22;42923;53.220;6.528;2022-08-25T14:09:04;40.10;48.50
52965;DHT22;42923;53.220;6.528;2022-08-25T14:12:24;40.30;48.50
52965;DHT22;42923;53.220;6.528;2022-08-25T14:16:57;40.50;48.30
52965;DHT22;42923;53.220;6.528;2022-08-25T14:19:24;40.50;46.90
52965;DHT22;42923;53.220;6.528;2022-08-25T14:21:51;40.40;46.10
52965;DHT22;42923;53.220;6.528;2022-08-25T14:24:20;40.30;46.50
52965;DHT22;42923;53.220;6.528;2022-08-25T14:26:46;40.10;46.10
52965;DHT22;42923;53.220;6.528;2022-08-25T14:29:13;39.90;46.00
52965;DHT22;42923;53.220;6.528;2022-08-25T14:31:41;39.80;47.00
52965;DHT22;42923;53.220;6.528;2022-08-25T14:34:16;39.90;46.90
52965;DHT22;42923;53.220;6.528;2022-08-25T14:36:42;40.00;46.50
52965;DHT22;42923;53.220;6.528;2022-08-25T14:39:09;40.10;46.30
52965;DHT22;42923;53.220;6.528;2022-08-25T14:41:37;40.00;46.10
52965;DHT22;42923;53.220;6.528;2022-08-25T14:44:04;40.00;46.60
52965;DHT22;42923;53.220;6.528;2022-08-25T14:46:33;40.10;46.00
52965;DHT22;42923;53.220;6.528;2022-08-25T14:49:02;40.10;46.20
52965;DHT22;42923;53.220;6.528;2022-08-25T14:51:30;40.00;46.40
52965;DHT22;42923;53.220;6.528;2022-08-25T14:54:01;40.00;46.70
52965;DHT22;42923;53.220;6.528;2022-08-25T14:56:29;40.10;45.90
52965;DHT22;42923;53.220;6.528;2022-08-25T14:58:54;40.00;46.60
52965;DHT22;42923;53.220;6.528;2022-08-25T15:01:22;40.00;46.70
52965;DHT22;42923;53.220;6.528;2022-08-25T15:03:50;40.00;46.40
52965;DHT22;42923;53.220;6.528;2022-08-25T15:06:17;40.00;46.90
52965;DHT22;42923;53.220;6.528;2022-08-25T15:08:43;39.80;46.50
52965;DHT22;42923;53.220;6.528;2022-08-25T15:11:28;39.20;47.10
52965;DHT22;42923;53.220;6.528;2022-08-25T15:13:54;38.10;48.00
52965;DHT22;42923;53.220;6.528;2022-08-25T15:16:23;37.20;49.00
52965;DHT22;42923;53.220;6.528;2022-08-25T15:18:50;36.30;48.90
52965;DHT22;42923;53.220;6.528;2022-08-25T15:21:15;35.50;49.50
52965;DHT22;42923;53.220;6.528;2022-08-25T15:23:41;34.80;50.80
52965;DHT22;42923;53.220;6.528;2022-08-25T15:26:12;34.20;52.00
52965;DHT22;42923;53.220;6.528;2022-08-25T15:28:41;33.60;52.60
52965;DHT22;42923;53.220;6.528;2022-08-25T15:31:07;33.20;52.60
52965;DHT22;42923;53.220;6.528;2022-08-25T15:33:33;32.80;54.10
52965;DHT22;42923;53.220;6.528;2022-08-25T15:35:58;32.50;53.80
52965;DHT22;42923;53.220;6.528;2022-08-25T15:38:24;32.20;53.50
52965;DHT22;42923;53.220;6.528;2022-08-25T15:40:50;32.00;54.20
52965;DHT22;42923;53.220;6.528;2022-08-25T15:43:15;31.80;55.50
52965;DHT22;42923;53.220;6.528;2022-08-25T15:45:42;31.60;55.50
52965;DHT22;42923;53.220;6.528;2022-08-25T15:48:07;31.40;56.00
52965;DHT22;42923;53.220;6.528;2022-08-25T15:50:33;31.30;56.30
52965;DHT22;42923;53.220;6.528;2022-08-25T15:52:59;31.20;55.80
52965;DHT22;42923;53.220;6.528;2022-08-25T15:55:24;31.00;56.30
52965;DHT22;42923;53.220;6.528;2022-08-25T15:57:50;30.90;55.50
52965;DHT22;42923;53.220;6.528;2022-08-25T16:00:17;30.80;55.60
52965;DHT22;42923;53.220;6.528;2022-08-25T16:02:43;30.70;56.80
52965;DHT22;42923;53.220;6.528;2022-08-25T16:05:09;30.70;57.00
52965;DHT22;42923;53.220;6.528;2022-08-25T16:07:36;30.60;57.00
52965;DHT22;42923;53.220;6.528;2022-08-25T16:10:03;30.40;57.30
52965;DHT22;42923;53.220;6.528;2022-08-25T16:12:29;30.40;58.00
52965;DHT22;42923;53.220;6.528;2022-08-25T16:14:55;30.30;57.90
52965;DHT22;42923;53.220;6.528;2022-08-25T16:17:21;30.20;57.40
52965;DHT22;42923;53.220;6.528;2022-08-25T16:19:47;30.10;58.00
52965;DHT22;42923;53.220;6.528;2022-08-25T16:22:13;30.00;58.30
52965;DHT22;42923;53.220;6.528;2022-08-25T16:24:43;30.00;58.30
52965;DHT22;42923;53.220;6.528;2022-08-25T16:27:10;29.90;58.20
52965;DHT22;42923;53.220;6.528;2022-08-25T16:29:39;29.90;58.40
52965;DHT22;42923;53.220;6.528;2022-08-25T16:32:06;29.80;58.20
52965;DHT22;42923;53.220;6.528;2022-08-25T16:34:33;29.80;57.90
52965;DHT22;42923;53.220;6.528;2022-08-25T16:36:59;29.70;58.30
52965;DHT22;42923;53.220;6.528;2022-08-25T16:39:26;29.70;58.50
52965;DHT22;42923;53.220;6.528;2022-08-25T16:41:51;29.60;58.10
52965;DHT22;42923;53.220;6.528;2022-08-25T16:44:19;29.60;58.30
52965;DHT22;42923;53.220;6.528;2022-08-25T16:46:45;29.50;58.50
52965;DHT22;42923;53.220;6.528;2022-08-25T16:49:12;29.40;59.00
52965;DHT22;42923;53.220;6.528;2022-08-25T16:51:39;29.40;58.50
52965;DHT22;42923;53.220;6.528;2022-08-25T16:54:06;29.30;58.90
52965;DHT22;42923;53.220;6.528;2022-08-25T16:56:52;29.30;58.70
52965;DHT22;42923;53.220;6.528;2022-08-25T16:59:17;29.20;59.40
52965;DHT22;42923;53.220;6.528;2022-08-25T17:01:43;29.20;59.20
52965;DHT22;42923;53.220;6.528;2022-08-25T17:04:09;29.10;59.70
52965;DHT22;42923;53.220;6.528;2022-08-25T17:06:39;29.00;59.50
52965;DHT22;42923;53.220;6.528;2022-08-25T17:09:06;28.90;60.40